createdAt,value
2023-05-11T00:03:18.065Z,14.39
2023-05-11T00:08:38.665Z,14.32
2023-05-11T00:13:59.521Z,14.21
2023-05-11T00:19:20.076Z,14.25
2023-05-11T00:24:40.810Z,14.24
2023-05-11T00:30:01.434Z,14.23
2023-05-11T00:35:22.196Z,14.16
2023-05-11T00:40:42.755Z,14.14
2023-05-11T00:46:04.003Z,14.08
2023-05-11T00:51:24.528Z,14.02
2023-05-11T00:56:45.615Z,13.85
2023-05-11T01:02:06.817Z,13.69
2023-05-11T01:07:35.501Z,13.55
2023-05-11T01:13:09.892Z,13.47
2023-05-11T01:18:46.990Z,13.46
2023-05-11T01:24:22.860Z,13.36
2023-05-11T01:29:48.104Z,13.34
2023-05-11T01:35:14.599Z,13.26
2023-05-11T01:40:35.772Z,13.24
2023-05-11T01:45:59.909Z,13.29
2023-05-11T01:51:20.812Z,13.29
2023-05-11T01:56:41.624Z,13.20
2023-05-11T02:02:02.235Z,13.13
2023-05-11T02:07:23.398Z,13.08
2023-05-11T02:12:44.714Z,13.00
2023-05-11T02:18:05.369Z,12.92
2023-05-11T02:23:26.476Z,12.84
2023-05-11T02:28:47.810Z,12.82
2023-05-11T02:34:23.677Z,12.78
2023-05-11T02:39:46.710Z,12.69
2023-05-11T02:45:08.492Z,12.72
2023-05-11T02:50:30.260Z,12.72
2023-05-11T02:55:52.152Z,12.71
2023-05-11T03:01:13.298Z,12.73
2023-05-11T03:06:35.502Z,12.72
2023-05-11T03:11:58.988Z,12.73
2023-05-11T03:17:21.316Z,12.74
2023-05-11T03:22:42.997Z,12.77
2023-05-11T03:28:04.235Z,12.74
2023-05-11T03:33:27.646Z,12.78
2023-05-11T03:38:48.723Z,12.79
2023-05-11T03:44:11.801Z,12.80
2023-05-11T03:49:34.179Z,12.82
2023-05-11T03:54:54.700Z,12.84
2023-05-11T04:00:16.565Z,12.96
2023-05-11T04:05:38.099Z,13.03
2023-05-11T04:11:02.158Z,13.14
2023-05-11T04:16:22.894Z,13.19
2023-05-11T04:21:43.578Z,13.12
2023-05-11T04:27:04.440Z,13.25
2023-05-11T04:32:24.950Z,13.28
2023-05-11T04:37:46.628Z,13.34
2023-05-11T04:43:07.938Z,13.39
2023-05-11T04:48:29.068Z,13.53
2023-05-11T04:53:50.576Z,13.53
2023-05-11T04:59:13.123Z,13.52
2023-05-11T05:04:36.272Z,13.61
2023-05-11T05:09:57.388Z,13.63
2023-05-11T05:15:18.061Z,13.68
2023-05-11T05:20:39.756Z,13.81
2023-05-11T05:26:00.412Z,13.99
2023-05-11T05:31:21.596Z,14.21
2023-05-11T05:36:43.069Z,14.46
2023-05-11T05:42:03.803Z,14.78
2023-05-11T05:47:25.533Z,15.13
2023-05-11T05:52:46.399Z,15.41
2023-05-11T05:58:08.331Z,15.86
2023-05-11T06:03:30.153Z,16.37
2023-05-11T06:08:51.728Z,16.62
2023-05-11T06:14:12.918Z,17.17
2023-05-11T06:19:34.574Z,17.51
2023-05-11T06:24:55.847Z,17.79
2023-05-11T06:30:16.754Z,19.42
2023-05-11T06:35:41.360Z,19.93
2023-05-11T06:41:06.369Z,19.38
2023-05-11T06:46:27.547Z,18.44
2023-05-11T06:51:48.981Z,17.72
2023-05-11T06:57:09.861Z,17.43
2023-05-11T07:02:32.062Z,17.85
2023-05-11T07:07:52.933Z,17.94
2023-05-11T07:13:14.349Z,18.02
2023-05-11T07:18:35.257Z,18.32
2023-05-11T07:23:55.895Z,18.66
2023-05-11T07:29:16.808Z,20.05
2023-05-11T07:34:38.129Z,20.62
2023-05-11T07:39:59.081Z,21.86
2023-05-11T07:45:20.111Z,23.59
2023-05-11T07:50:42.543Z,25.79
2023-05-11T07:56:04.135Z,27.18
2023-05-11T08:01:25.122Z,28.71
2023-05-11T08:06:45.818Z,29.98
2023-05-11T08:12:07.944Z,31.12
2023-05-11T08:17:28.910Z,28.92
2023-05-11T08:22:50.896Z,29.25
2023-05-11T08:28:12.307Z,27.41
2023-05-11T08:33:38.407Z,27.88
2023-05-11T08:38:59.829Z,26.64
2023-05-11T08:44:20.975Z,27.71
2023-05-11T08:49:42.085Z,25.65
2023-05-11T08:55:04.524Z,24.93
2023-05-11T09:00:26.007Z,24.20
2023-05-11T09:05:47.162Z,22.61
2023-05-11T09:11:08.007Z,21.67
2023-05-11T09:16:36.853Z,21.35
2023-05-11T09:22:00.470Z,21.57
2023-05-11T09:27:22.307Z,22.88
2023-05-11T09:32:50.055Z,22.70
2023-05-11T09:38:13.267Z,23.31
2023-05-11T09:43:34.061Z,23.70
2023-05-11T09:49:01.208Z,22.35
2023-05-11T09:54:22.624Z,22.15
2023-05-11T09:59:43.440Z,22.39
2023-05-11T10:05:12.663Z,23.33
2023-05-11T10:10:34.560Z,23.17
2023-05-11T10:15:55.565Z,22.74
2023-05-11T10:21:16.634Z,22.96
2023-05-11T10:26:37.508Z,22.59
2023-05-11T10:31:59.027Z,22.04
2023-05-11T10:37:21.425Z,22.66
2023-05-11T10:43:04.196Z,22.66
2023-05-11T10:48:52.891Z,22.24
2023-05-11T10:54:32.543Z,21.32
2023-05-11T11:00:47.954Z,21.03
2023-05-11T11:06:21.988Z,21.23
2023-05-11T11:11:46.621Z,21.02
2023-05-11T11:17:25.292Z,21.35
2023-05-11T11:22:47.496Z,21.58
2023-05-11T11:28:08.767Z,21.89
2023-05-11T11:33:29.350Z,21.53
2023-05-11T11:39:02.569Z,21.37
2023-05-11T11:44:23.939Z,21.61
2023-05-11T11:49:53.771Z,21.51
2023-05-11T11:55:22.151Z,21.75
2023-05-11T12:00:43.002Z,22.49
2023-05-11T12:06:05.873Z,23.12
2023-05-11T12:11:27.591Z,23.24
2023-05-11T12:17:04.623Z,22.48
2023-05-11T12:22:25.794Z,22.84
2023-05-11T12:27:55.394Z,22.54
2023-05-11T12:33:16.538Z,22.37
2023-05-11T12:38:44.380Z,22.00
2023-05-11T12:44:05.747Z,22.31
2023-05-11T12:49:27.876Z,22.16
2023-05-11T12:54:51.704Z,21.78
2023-05-11T13:00:14.862Z,21.36
2023-05-11T13:05:35.969Z,21.61
2023-05-11T13:10:57.395Z,21.99
2023-05-11T13:16:29.058Z,21.25
2023-05-11T13:21:50.336Z,20.49
2023-05-11T13:27:11.247Z,20.19
2023-05-11T13:32:32.239Z,20.49
2023-05-11T13:37:56.041Z,20.61
2023-05-11T13:43:17.007Z,20.67
2023-05-11T13:48:37.691Z,20.72
2023-05-11T13:53:59.513Z,20.34
2023-05-11T13:59:20.207Z,20.11
2023-05-11T14:04:41.760Z,19.92
2023-05-11T14:10:02.982Z,19.50
2023-05-11T14:15:23.768Z,19.22
2023-05-11T14:20:44.483Z,19.23
2023-05-11T14:26:05.362Z,19.10
2023-05-11T14:31:26.250Z,18.83
2023-05-11T14:36:47.393Z,18.75
2023-05-11T14:42:08.626Z,18.49
2023-05-11T14:47:29.558Z,18.49
2023-05-11T14:52:50.425Z,18.85
2023-05-11T14:58:11.594Z,19.12
2023-05-11T15:03:32.719Z,19.17
2023-05-11T15:08:53.269Z,19.28
2023-05-11T15:14:14.070Z,19.11
2023-05-11T15:19:34.902Z,19.11
2023-05-11T15:24:56.072Z,19.23
2023-05-11T15:30:16.957Z,19.18
2023-05-11T15:35:37.910Z,18.68
2023-05-11T15:40:58.842Z,18.66
2023-05-11T15:46:19.524Z,18.57
2023-05-11T15:51:41.751Z,18.55
2023-05-11T15:57:02.450Z,18.52
2023-05-11T16:02:23.823Z,18.45
2023-05-11T16:07:44.730Z,18.30
2023-05-11T16:13:05.626Z,18.23
2023-05-11T16:18:26.294Z,18.34
2023-05-11T16:23:47.000Z,18.26
2023-05-11T16:29:08.043Z,17.94
2023-05-11T16:34:29.179Z,17.75
2023-05-11T16:39:50.490Z,17.60
2023-05-11T16:45:12.736Z,17.52
2023-05-11T16:50:33.838Z,17.50
2023-05-11T16:55:55.377Z,17.51
2023-05-11T17:01:16.054Z,17.49
2023-05-11T17:06:36.755Z,17.52
2023-05-11T17:11:57.517Z,17.48
2023-05-11T17:17:18.168Z,17.44
2023-05-11T17:22:38.785Z,17.24
2023-05-11T17:27:59.490Z,17.18
2023-05-11T17:33:20.188Z,17.04
2023-05-11T17:38:40.656Z,16.94
2023-05-11T17:44:01.292Z,16.90
2023-05-11T17:49:21.925Z,16.78
2023-05-11T17:54:42.491Z,16.77
2023-05-11T18:00:03.679Z,16.66
2023-05-11T18:05:33.458Z,16.62
2023-05-11T18:10:57.564Z,16.51
2023-05-11T18:16:18.259Z,16.42
2023-05-11T18:21:40.379Z,16.34
2023-05-11T18:27:02.248Z,16.26
2023-05-11T18:32:23.323Z,16.18
2023-05-11T18:37:44.328Z,16.09
2023-05-11T18:43:08.044Z,16.10
2023-05-11T18:48:29.104Z,16.09
2023-05-11T18:53:50.271Z,16.06
2023-05-11T18:59:11.105Z,16.03
2023-05-11T19:04:31.963Z,15.99
2023-05-11T19:09:52.937Z,15.94
2023-05-11T19:15:13.800Z,15.92
2023-05-11T19:20:34.654Z,15.87
2023-05-11T19:25:55.484Z,15.86
2023-05-11T19:31:16.223Z,15.82
2023-05-11T19:36:36.980Z,15.77
2023-05-11T19:41:57.707Z,15.73
2023-05-11T19:47:18.325Z,15.69
2023-05-11T19:52:38.942Z,15.64
2023-05-11T19:58:00.035Z,15.62
2023-05-11T20:03:21.924Z,15.55
2023-05-11T20:08:42.786Z,15.52
2023-05-11T20:14:04.714Z,15.46
2023-05-11T20:19:25.516Z,15.42
2023-05-11T20:24:46.208Z,15.39
2023-05-11T20:30:07.793Z,15.36
2023-05-11T20:35:28.475Z,15.36
2023-05-11T20:40:49.258Z,15.37
2023-05-11T20:46:11.461Z,15.39
2023-05-11T20:51:33.358Z,15.41
2023-05-11T20:56:54.038Z,15.39
2023-05-11T21:02:14.449Z,15.33
2023-05-11T21:07:35.104Z,15.31
2023-05-11T21:12:55.722Z,15.32
2023-05-11T21:18:16.360Z,15.32
2023-05-11T21:23:36.811Z,15.24
2023-05-11T21:28:57.662Z,15.20
2023-05-11T21:34:18.220Z,15.14
2023-05-11T21:39:38.903Z,15.08
2023-05-11T21:44:59.657Z,15.02
2023-05-11T21:50:23.110Z,14.91
2023-05-11T21:55:43.912Z,14.78
2023-05-11T22:01:04.884Z,14.64
2023-05-11T22:06:25.799Z,14.53
2023-05-11T22:11:46.452Z,14.49
2023-05-11T22:17:06.955Z,14.48
2023-05-11T22:22:27.598Z,14.47
2023-05-11T22:27:48.325Z,14.52
2023-05-11T22:33:08.979Z,14.53
2023-05-11T22:38:30.311Z,14.50
2023-05-11T22:43:51.151Z,14.51
2023-05-11T22:49:12.272Z,14.51
2023-05-11T22:54:32.581Z,14.58
2023-05-11T22:59:53.160Z,14.58
2023-05-11T23:05:13.849Z,14.57
2023-05-11T23:10:34.445Z,14.55
2023-05-11T23:15:55.178Z,14.52
2023-05-11T23:21:15.736Z,14.47
2023-05-11T23:26:36.328Z,14.41
2023-05-11T23:31:56.924Z,14.37
2023-05-11T23:37:17.543Z,14.29
2023-05-11T23:42:38.267Z,14.24
2023-05-11T23:47:59.572Z,14.25
2023-05-11T23:53:20.475Z,14.25
2023-05-11T23:58:46.078Z,14.20
